createdAt,value
2019-05-23T00:00:42.321Z,22.13
2019-05-23T00:02:45.534Z,22.11
2019-05-23T00:04:47.681Z,22.07
2019-05-23T00:06:49.292Z,22.05
2019-05-23T00:08:50.872Z,22.03
2019-05-23T00:10:53.056Z,22.01
2019-05-23T00:12:59.529Z,22.00
2019-05-23T00:15:01.425Z,22.00
2019-05-23T00:17:02.775Z,22.01
2019-05-23T00:19:04.656Z,22.05
2019-05-23T00:21:06.260Z,22.09
2019-05-23T00:23:07.848Z,22.16
2019-05-23T00:25:09.454Z,22.23
2019-05-23T00:27:11.063Z,22.27
2019-05-23T00:29:12.693Z,22.28
2019-05-23T00:31:27.176Z,22.29
2019-05-23T00:33:28.756Z,22.33
2019-05-23T00:35:30.364Z,22.34
2019-05-23T00:37:31.970Z,22.34
2019-05-23T00:39:33.670Z,22.32
2019-05-23T00:41:35.265Z,22.29
2019-05-23T00:43:36.867Z,22.23
2019-05-23T00:45:38.453Z,22.21
2019-05-23T00:47:40.045Z,22.17
2019-05-23T00:49:41.680Z,22.14
2019-05-23T00:51:43.287Z,22.16
2019-05-23T00:53:44.927Z,22.23
2019-05-23T00:55:46.532Z,22.26
2019-05-23T00:57:48.135Z,22.28
2019-05-23T00:59:49.730Z,22.26
2019-05-23T01:01:51.336Z,22.25
2019-05-23T01:03:52.986Z,22.23
2019-05-23T01:05:54.588Z,22.23
2019-05-23T01:07:56.199Z,22.24
2019-05-23T01:09:57.862Z,22.28
2019-05-23T01:11:59.489Z,22.33
2019-05-23T01:14:01.073Z,22.31
2019-05-23T01:16:02.670Z,22.29
2019-05-23T01:18:04.254Z,22.05
2019-05-23T01:20:05.842Z,22.28
2019-05-23T01:22:07.492Z,22.26
2019-05-23T01:24:13.977Z,22.24
2019-05-23T01:26:15.559Z,22.22
2019-05-23T01:28:17.175Z,22.19
2019-05-23T01:30:23.236Z,22.16
2019-05-23T01:32:25.741Z,22.13
2019-05-23T01:34:27.355Z,22.11
2019-05-23T01:36:28.946Z,22.10
2019-05-23T01:38:30.560Z,21.84
2019-05-23T01:40:32.148Z,22.06
2019-05-23T01:42:33.764Z,22.05
2019-05-23T01:44:35.426Z,22.06
2019-05-23T01:46:37.008Z,22.09
2019-05-23T01:48:38.656Z,22.13
2019-05-23T01:50:40.345Z,22.17
2019-05-23T01:52:41.961Z,22.25
2019-05-23T01:54:43.640Z,22.33
2019-05-23T01:56:45.233Z,22.43
2019-05-23T01:58:46.887Z,22.30
2019-05-23T02:00:48.517Z,22.34
2019-05-23T02:02:50.132Z,22.42
2019-05-23T02:04:51.759Z,22.12
2019-05-23T02:06:53.369Z,22.60
2019-05-23T02:08:54.980Z,22.74
2019-05-23T02:10:56.558Z,22.83
2019-05-23T02:12:58.149Z,22.90
2019-05-23T02:14:59.768Z,22.94
2019-05-23T02:17:01.702Z,22.97
2019-05-23T02:19:03.207Z,23.00
2019-05-23T02:21:04.852Z,22.98
2019-05-23T02:23:06.516Z,22.94
2019-05-23T02:25:08.113Z,22.88
2019-05-23T02:27:09.761Z,22.88
2019-05-23T02:29:11.348Z,22.84
2019-05-23T02:31:12.927Z,22.55
2019-05-23T02:33:14.541Z,22.80
2019-05-23T02:35:16.185Z,22.76
2019-05-23T02:37:33.421Z,22.72
2019-05-23T02:39:35.483Z,22.65
2019-05-23T02:41:37.981Z,22.76
2019-05-23T02:43:39.589Z,22.69
2019-05-23T02:45:41.222Z,22.41
2019-05-23T02:47:42.828Z,22.23
2019-05-23T02:49:44.421Z,22.14
2019-05-23T02:51:46.037Z,22.23
2019-05-23T02:53:47.624Z,22.41
2019-05-23T02:55:49.213Z,22.09
2019-05-23T02:57:50.826Z,22.21
2019-05-23T02:59:52.419Z,22.11
2019-05-23T03:01:54.955Z,22.06
2019-05-23T03:03:56.578Z,22.03
2019-05-23T03:05:58.217Z,21.99
2019-05-23T03:07:59.824Z,21.95
2019-05-23T03:10:01.414Z,21.93
2019-05-23T03:12:03.045Z,21.89
2019-05-23T03:14:04.690Z,21.84
2019-05-23T03:16:06.301Z,21.81
2019-05-23T03:18:07.944Z,21.77
2019-05-23T03:20:09.536Z,21.75
2019-05-23T03:22:11.229Z,21.71
2019-05-23T03:24:12.903Z,21.68
2019-05-23T03:26:14.489Z,21.65
2019-05-23T03:28:16.104Z,21.63
2019-05-23T03:30:20.289Z,21.60
2019-05-23T03:32:24.323Z,21.61
2019-05-23T03:34:25.928Z,21.64
2019-05-23T03:36:27.524Z,21.68
2019-05-23T03:38:29.109Z,21.75
2019-05-23T03:40:30.689Z,21.84
2019-05-23T03:42:32.368Z,21.93
2019-05-23T03:44:34.043Z,22.03
2019-05-23T03:46:35.649Z,22.12
2019-05-23T03:48:37.391Z,22.25
2019-05-23T03:50:39.064Z,22.37
2019-05-23T03:52:40.646Z,22.47
2019-05-23T03:54:42.307Z,22.51
2019-05-23T03:56:43.898Z,22.59
2019-05-23T03:58:45.488Z,22.60
2019-05-23T04:00:47.981Z,22.60
2019-05-23T04:02:49.588Z,22.41
2019-05-23T04:04:51.231Z,22.62
2019-05-23T04:06:52.982Z,22.60
2019-05-23T04:08:54.590Z,22.55
2019-05-23T04:10:56.219Z,22.48
2019-05-23T04:12:57.840Z,22.44
2019-05-23T04:14:59.448Z,22.36
2019-05-23T04:17:01.033Z,22.30
2019-05-23T04:19:02.611Z,22.25
2019-05-23T04:21:04.281Z,22.20
2019-05-23T04:23:05.872Z,22.16
2019-05-23T04:25:07.488Z,22.11
2019-05-23T04:27:09.104Z,22.07
2019-05-23T04:29:10.678Z,21.68
2019-05-23T04:31:13.359Z,21.98
2019-05-23T04:33:13.920Z,21.99
2019-05-23T04:35:15.567Z,21.96
2019-05-23T04:37:17.276Z,21.94
2019-05-23T04:39:18.848Z,21.91
2019-05-23T04:41:20.505Z,21.88
2019-05-23T04:43:22.100Z,21.84
2019-05-23T04:45:23.721Z,21.81
2019-05-23T04:47:25.316Z,21.78
2019-05-23T04:49:26.919Z,21.76
2019-05-23T04:51:28.567Z,21.74
2019-05-23T04:53:30.180Z,21.72
2019-05-23T04:55:31.820Z,21.69
2019-05-23T04:57:33.486Z,21.66
2019-05-23T04:59:35.077Z,21.66
2019-05-23T05:01:36.689Z,21.64
2019-05-23T05:03:38.309Z,21.65
2019-05-23T05:05:39.976Z,21.46
2019-05-23T05:07:41.597Z,21.71
2019-05-23T05:09:43.185Z,21.75
2019-05-23T05:11:44.822Z,21.79
2019-05-23T05:13:46.416Z,21.84
2019-05-23T05:15:48.005Z,21.90
2019-05-23T05:17:49.626Z,21.95
2019-05-23T05:19:51.218Z,22.00
2019-05-23T05:21:52.824Z,22.03
2019-05-23T05:23:54.407Z,22.07
2019-05-23T05:25:55.998Z,22.12
2019-05-23T05:27:57.676Z,22.18
2019-05-23T05:29:59.292Z,22.27
2019-05-23T05:32:03.638Z,22.22
2019-05-23T05:34:02.577Z,22.09
2019-05-23T05:36:04.402Z,22.37
2019-05-23T05:38:06.160Z,22.37
2019-05-23T05:40:07.822Z,22.36
2019-05-23T05:42:09.436Z,22.33
2019-05-23T05:44:11.782Z,22.32
2019-05-23T05:46:12.723Z,22.29
2019-05-23T05:48:14.346Z,22.26
2019-05-23T05:50:15.964Z,22.20
2019-05-23T05:52:17.598Z,22.14
2019-05-23T05:54:19.183Z,22.12
2019-05-23T05:56:20.805Z,22.08
2019-05-23T05:58:22.413Z,22.04
2019-05-23T06:00:40.731Z,22.03
2019-05-23T06:02:42.363Z,22.03
2019-05-23T06:04:43.952Z,22.04
2019-05-23T06:06:50.096Z,22.04
2019-05-23T06:08:49.742Z,22.00
2019-05-23T06:10:51.237Z,21.95
2019-05-23T06:12:52.822Z,21.93
2019-05-23T06:14:54.472Z,21.89
2019-05-23T06:16:56.106Z,21.87
2019-05-23T06:18:58.381Z,21.81
2019-05-23T06:20:59.997Z,21.80
2019-05-23T06:23:01.608Z,21.78
2019-05-23T06:25:04.385Z,21.75
2019-05-23T06:27:05.167Z,21.74
2019-05-23T06:29:07.016Z,21.72
2019-05-23T06:31:08.509Z,21.47
2019-05-23T06:33:22.534Z,21.71
2019-05-23T06:35:11.825Z,21.70
2019-05-23T06:37:13.463Z,21.72
2019-05-23T06:39:15.043Z,21.74
2019-05-23T06:41:16.717Z,21.75
2019-05-23T06:43:18.926Z,21.78
2019-05-23T06:45:20.580Z,21.80
2019-05-23T06:47:22.220Z,21.85
2019-05-23T06:49:23.809Z,21.88
2019-05-23T06:51:25.392Z,21.92
2019-05-23T06:53:26.980Z,21.97
2019-05-23T06:55:28.618Z,22.02
2019-05-23T06:57:30.259Z,22.10
2019-05-23T06:59:31.838Z,22.17
2019-05-23T07:01:33.466Z,22.23
2019-05-23T07:03:42.562Z,22.28
2019-05-23T07:05:36.778Z,22.30
2019-05-23T07:07:38.534Z,22.35
2019-05-23T07:09:40.119Z,22.36
2019-05-23T07:11:41.754Z,22.38
2019-05-23T07:13:43.393Z,22.37
2019-05-23T07:15:44.968Z,22.37
2019-05-23T07:17:46.573Z,22.35
2019-05-23T07:19:48.162Z,22.35
2019-05-23T07:21:49.764Z,22.32
2019-05-23T07:23:51.355Z,22.29
2019-05-23T07:25:52.962Z,22.26
2019-05-23T07:27:54.552Z,22.22
2019-05-23T07:29:56.343Z,22.19
2019-05-23T07:31:57.930Z,22.12
2019-05-23T07:34:02.377Z,22.07
2019-05-23T07:36:01.284Z,22.03
2019-05-23T07:38:02.884Z,21.98
2019-05-23T07:40:04.474Z,21.94
2019-05-23T07:42:06.169Z,21.89
2019-05-23T07:44:07.854Z,21.86
2019-05-23T07:46:09.462Z,21.84
2019-05-23T07:48:11.070Z,21.80
2019-05-23T07:50:12.692Z,21.78
2019-05-23T07:52:14.320Z,21.76
2019-05-23T07:54:16.464Z,21.74
2019-05-23T07:56:18.672Z,21.73
2019-05-23T07:58:20.267Z,21.72
2019-05-23T08:00:26.610Z,21.70
2019-05-23T08:02:29.089Z,21.68
2019-05-23T08:04:30.681Z,21.70
2019-05-23T08:06:32.280Z,21.69
2019-05-23T08:08:33.878Z,21.71
2019-05-23T08:10:35.512Z,21.74
2019-05-23T08:12:37.103Z,21.78
2019-05-23T08:14:38.784Z,21.81
2019-05-23T08:16:40.363Z,21.89
2019-05-23T08:18:41.963Z,21.94
2019-05-23T08:20:43.592Z,21.74
2019-05-23T08:22:45.164Z,22.04
2019-05-23T08:24:50.898Z,22.09
2019-05-23T08:26:48.449Z,22.11
2019-05-23T08:29:12.775Z,22.17
2019-05-23T08:30:51.744Z,22.20
2019-05-23T08:32:53.347Z,22.24
2019-05-23T08:34:54.968Z,22.26
2019-05-23T08:36:56.542Z,22.26
2019-05-23T08:38:58.136Z,22.14
2019-05-23T08:40:59.773Z,22.32
2019-05-23T08:43:01.393Z,22.34
2019-05-23T08:45:02.999Z,22.34
2019-05-23T08:47:04.588Z,22.32
2019-05-23T08:49:06.162Z,22.29
2019-05-23T08:51:07.785Z,22.27
2019-05-23T08:53:09.427Z,22.23
2019-05-23T08:55:11.042Z,22.20
2019-05-23T08:57:12.633Z,22.16
2019-05-23T08:59:14.262Z,22.14
2019-05-23T09:01:15.854Z,22.11
2019-05-23T09:03:17.443Z,22.07
2019-05-23T09:05:19.039Z,22.05
2019-05-23T09:07:20.619Z,22.01
2019-05-23T09:09:29.719Z,21.99
2019-05-23T09:11:24.078Z,21.98
2019-05-23T09:13:25.668Z,21.96
2019-05-23T09:15:27.280Z,21.95
2019-05-23T09:17:28.877Z,21.93
2019-05-23T09:19:30.485Z,21.92
2019-05-23T09:21:32.112Z,21.90
2019-05-23T09:23:33.701Z,21.88
2019-05-23T09:25:35.288Z,21.83
2019-05-23T09:27:36.873Z,21.84
2019-05-23T09:29:38.450Z,21.83
2019-05-23T09:31:40.041Z,21.84
2019-05-23T09:33:41.626Z,21.61
2019-05-23T09:35:43.248Z,21.87
2019-05-23T09:37:44.858Z,21.93
2019-05-23T09:39:46.466Z,22.01
2019-05-23T09:41:48.049Z,22.08
2019-05-23T09:43:49.625Z,22.14
2019-05-23T09:45:51.258Z,22.19
2019-05-23T09:47:52.872Z,22.26
2019-05-23T09:49:54.597Z,22.33
2019-05-23T09:52:00.833Z,22.37
2019-05-23T09:53:58.011Z,22.43
2019-05-23T09:55:59.772Z,22.46
2019-05-23T09:58:01.360Z,22.49
2019-05-23T10:00:03.099Z,22.51
2019-05-23T10:02:04.837Z,22.47
2019-05-23T10:04:06.499Z,22.44
2019-05-23T10:06:08.116Z,22.47
2019-05-23T10:08:09.723Z,22.47
2019-05-23T10:10:11.341Z,22.51
2019-05-23T10:12:12.967Z,22.52
2019-05-23T10:14:14.558Z,22.48
2019-05-23T10:16:16.173Z,22.44
2019-05-23T10:18:18.308Z,22.46
2019-05-23T10:20:19.898Z,22.46
2019-05-23T10:22:21.520Z,22.45
2019-05-23T10:24:23.105Z,22.46
2019-05-23T10:26:24.720Z,22.46
2019-05-23T10:28:26.336Z,22.42
2019-05-23T10:30:27.914Z,22.39
2019-05-23T10:32:29.544Z,22.35
2019-05-23T10:34:31.139Z,22.36
2019-05-23T10:36:32.739Z,22.31
2019-05-23T10:38:34.384Z,22.29
2019-05-23T10:40:35.977Z,22.29
2019-05-23T10:42:37.768Z,22.25
2019-05-23T10:44:39.336Z,22.20
2019-05-23T10:46:40.915Z,22.16
2019-05-23T10:48:42.502Z,22.17
2019-05-23T10:50:45.348Z,22.17
2019-05-23T10:52:45.757Z,22.17
2019-05-23T10:54:47.337Z,22.16
2019-05-23T10:56:48.920Z,22.17
2019-05-23T10:58:50.524Z,22.18
2019-05-23T11:00:52.194Z,22.17
2019-05-23T11:02:53.806Z,22.17
2019-05-23T11:04:55.431Z,22.19
2019-05-23T11:06:57.017Z,22.06
2019-05-23T11:08:58.655Z,22.20
2019-05-23T11:11:00.320Z,22.19
2019-05-23T11:13:02.003Z,22.22
2019-05-23T11:15:03.629Z,22.23
2019-05-23T11:17:05.217Z,22.23
2019-05-23T11:19:06.804Z,22.27
2019-05-23T11:21:08.447Z,22.30
2019-05-23T11:23:10.056Z,22.32
2019-05-23T11:25:11.762Z,22.34
2019-05-23T11:27:13.371Z,22.36
2019-05-23T11:29:14.987Z,22.35
2019-05-23T11:31:16.632Z,22.35
2019-05-23T11:33:18.246Z,22.41
2019-05-23T11:35:19.868Z,22.45
2019-05-23T11:37:21.470Z,22.46
2019-05-23T11:39:23.188Z,22.48
2019-05-23T11:41:24.855Z,22.21
2019-05-23T11:43:26.468Z,22.48
2019-05-23T11:45:28.092Z,22.50
2019-05-23T11:47:31.967Z,22.49
2019-05-23T11:49:31.417Z,22.50
2019-05-23T11:51:33.080Z,22.50
2019-05-23T11:53:34.693Z,22.48
2019-05-23T11:55:36.324Z,22.48
2019-05-23T11:57:38.433Z,22.47
2019-05-23T11:59:39.556Z,22.45
2019-05-23T12:01:42.061Z,22.45
2019-05-23T12:03:43.712Z,22.43
2019-05-23T12:05:45.302Z,22.41
2019-05-23T12:07:46.911Z,22.39
2019-05-23T12:09:48.532Z,22.37
2019-05-23T12:11:50.178Z,22.34
2019-05-23T12:13:51.773Z,22.31
2019-05-23T12:15:53.388Z,22.32
2019-05-23T12:17:54.981Z,22.30
2019-05-23T12:19:56.616Z,22.28
2019-05-23T12:21:58.233Z,22.26
2019-05-23T12:23:59.987Z,22.24
2019-05-23T12:26:01.950Z,22.22
2019-05-23T12:28:03.596Z,22.21
2019-05-23T12:30:05.213Z,22.20
2019-05-23T12:32:06.824Z,22.18
2019-05-23T12:34:08.469Z,22.16
2019-05-23T12:36:10.056Z,22.16
2019-05-23T12:38:11.692Z,22.15
2019-05-23T12:40:13.290Z,22.15
2019-05-23T12:42:14.907Z,22.15
2019-05-23T12:44:17.659Z,22.14
2019-05-23T12:46:18.214Z,22.16
2019-05-23T12:48:20.794Z,22.14
2019-05-23T12:50:22.389Z,22.14
2019-05-23T12:52:24.190Z,22.16
2019-05-23T12:54:25.819Z,22.19
2019-05-23T12:56:27.410Z,22.20
2019-05-23T12:58:28.990Z,22.21
2019-05-23T13:00:36.487Z,22.20
2019-05-23T13:02:37.931Z,22.21
2019-05-23T13:04:39.544Z,22.23
2019-05-23T13:06:41.195Z,22.23
2019-05-23T13:08:42.805Z,22.26
2019-05-23T13:10:44.429Z,22.27
2019-05-23T13:12:46.016Z,22.45
2019-05-23T13:14:47.624Z,22.40
2019-05-23T13:16:49.254Z,22.77
2019-05-23T13:18:50.846Z,22.82
2019-05-23T13:20:52.434Z,22.84
2019-05-23T13:22:54.053Z,22.65
2019-05-23T13:24:55.697Z,22.49
2019-05-23T13:26:57.504Z,22.39
2019-05-23T13:28:59.177Z,22.26
2019-05-23T13:31:00.776Z,22.34
2019-05-23T13:33:03.709Z,22.45
2019-05-23T13:35:04.053Z,22.52
2019-05-23T13:37:05.693Z,22.54
2019-05-23T13:39:07.321Z,22.55
2019-05-23T13:41:08.935Z,22.51
2019-05-23T13:43:10.542Z,22.50
2019-05-23T13:45:12.129Z,22.50
2019-05-23T13:47:13.812Z,22.49
2019-05-23T13:49:15.427Z,22.47
2019-05-23T13:51:17.050Z,22.45
2019-05-23T13:53:18.661Z,22.43
2019-05-23T13:55:20.287Z,22.42
2019-05-23T13:57:21.913Z,22.36
2019-05-23T13:59:23.519Z,22.36
2019-05-23T14:01:25.170Z,22.33
2019-05-23T14:03:26.766Z,22.28
2019-05-23T14:05:28.343Z,22.23
2019-05-23T14:07:29.969Z,22.19
2019-05-23T14:12:24.981Z,22.10
2019-05-23T14:14:11.834Z,22.07
2019-05-23T14:16:13.395Z,22.04
2019-05-23T14:18:15.490Z,22.03
2019-05-23T14:20:17.084Z,22.02
2019-05-23T14:22:18.720Z,21.99
2019-05-23T14:24:20.324Z,21.99
2019-05-23T14:26:21.933Z,21.96
2019-05-23T14:28:23.581Z,21.94
2019-05-23T14:30:40.928Z,21.78
2019-05-23T14:32:44.549Z,21.89
2019-05-23T14:34:46.148Z,21.87
2019-05-23T14:36:50.336Z,21.86
2019-05-23T14:38:51.958Z,21.84
2019-05-23T14:40:53.564Z,21.83
2019-05-23T14:42:55.977Z,21.85
2019-05-23T14:44:57.665Z,21.90
2019-05-23T14:46:59.340Z,21.97
2019-05-23T14:49:01.796Z,22.01
2019-05-23T14:51:03.443Z,22.03
2019-05-23T14:53:05.583Z,22.05
2019-05-23T14:55:10.156Z,22.06
2019-05-23T14:57:08.874Z,22.10
2019-05-23T14:59:10.459Z,22.14
2019-05-23T15:01:12.071Z,22.16
2019-05-23T15:03:13.693Z,22.02
2019-05-23T15:05:15.304Z,22.16
2019-05-23T15:07:16.928Z,22.14
2019-05-23T15:09:21.312Z,22.03
2019-05-23T15:11:20.210Z,21.85
2019-05-23T15:13:21.803Z,21.75
2019-05-23T15:15:23.436Z,21.67
2019-05-23T15:17:25.099Z,21.59
2019-05-23T15:19:40.447Z,21.53
2019-05-23T15:21:28.338Z,21.50
2019-05-23T15:23:29.918Z,21.45
2019-05-23T15:25:31.552Z,21.41
2019-05-23T15:27:33.390Z,21.33
2019-05-23T15:29:35.180Z,21.35
2019-05-23T15:31:36.783Z,21.39
2019-05-23T15:33:38.388Z,21.46
2019-05-23T15:35:40.029Z,21.49
2019-05-23T15:37:41.705Z,21.47
2019-05-23T15:39:43.332Z,21.44
2019-05-23T15:41:44.916Z,21.41
2019-05-23T15:43:46.524Z,21.36
2019-05-23T15:45:48.159Z,21.32
2019-05-23T15:47:49.749Z,21.29
2019-05-23T15:49:51.331Z,21.25
2019-05-23T15:51:54.233Z,21.21
2019-05-23T15:53:55.435Z,21.17
2019-05-23T15:55:57.072Z,21.14
2019-05-23T15:57:59.568Z,21.12
2019-05-23T16:00:04.073Z,21.07
2019-05-23T16:02:08.153Z,21.06
2019-05-23T16:04:10.632Z,21.03
2019-05-23T16:06:14.861Z,21.00
2019-05-23T16:08:16.518Z,20.98
2019-05-23T16:10:18.124Z,20.96
2019-05-23T16:12:19.733Z,20.98
2019-05-23T16:14:21.353Z,21.06
2019-05-23T16:16:22.966Z,21.03
2019-05-23T16:18:25.215Z,21.11
2019-05-23T16:20:26.569Z,21.21
2019-05-23T16:22:28.188Z,21.28
2019-05-23T16:24:29.780Z,21.27
2019-05-23T16:26:31.431Z,21.18
2019-05-23T16:28:33.052Z,21.18
2019-05-23T16:30:34.712Z,21.14
2019-05-23T16:32:36.350Z,21.10
2019-05-23T16:34:37.967Z,21.05
2019-05-23T16:36:39.546Z,21.02
2019-05-23T16:38:41.141Z,20.95
2019-05-23T16:40:42.842Z,20.70
2019-05-23T16:42:44.433Z,21.00
2019-05-23T16:44:46.004Z,21.12
2019-05-23T16:46:47.613Z,21.15
2019-05-23T16:48:49.232Z,21.19
2019-05-23T16:50:50.821Z,21.13
2019-05-23T16:52:52.467Z,21.07
2019-05-23T16:54:54.088Z,21.00
2019-05-23T16:57:00.837Z,20.97
2019-05-23T16:59:08.429Z,20.92
2019-05-23T17:01:23.514Z,20.90
2019-05-23T17:03:14.123Z,20.88
2019-05-23T17:05:20.324Z,20.85
2019-05-23T17:07:24.889Z,20.75
2019-05-23T17:09:31.777Z,20.74
2019-05-23T17:11:31.908Z,20.73
2019-05-23T17:13:34.037Z,20.72
2019-05-23T17:15:53.463Z,20.68
2019-05-23T17:18:03.176Z,20.65
2019-05-23T17:20:18.489Z,20.63
2019-05-23T17:22:09.817Z,20.48
2019-05-23T17:24:12.934Z,20.58
2019-05-23T17:26:31.233Z,20.56
2019-05-23T17:28:33.775Z,20.54
2019-05-23T17:30:36.786Z,20.51
2019-05-23T17:32:38.402Z,20.48
2019-05-23T17:34:40.011Z,20.45
2019-05-23T17:36:41.638Z,20.45
2019-05-23T17:38:43.273Z,20.46
2019-05-23T17:40:44.979Z,20.57
2019-05-23T17:42:46.615Z,21.07
2019-05-23T17:44:48.212Z,21.35
2019-05-23T17:46:49.885Z,21.90
2019-05-23T17:48:51.474Z,22.36
2019-05-23T17:50:53.060Z,22.36
2019-05-23T17:52:55.945Z,22.40
2019-05-23T17:54:57.560Z,22.29
2019-05-23T17:56:59.195Z,22.39
2019-05-23T17:59:00.784Z,22.37
2019-05-23T18:01:02.392Z,22.44
2019-05-23T18:03:04.051Z,22.35
2019-05-23T18:05:05.636Z,22.37
2019-05-23T18:07:07.244Z,22.22
2019-05-23T18:09:08.836Z,21.54
2019-05-23T18:11:10.466Z,21.75
2019-05-23T18:13:12.079Z,22.22
2019-05-23T18:15:13.816Z,22.52
2019-05-23T18:17:15.479Z,22.61
2019-05-23T18:19:17.094Z,22.56
2019-05-23T18:21:18.688Z,22.58
2019-05-23T18:23:20.652Z,23.01
2019-05-23T18:25:22.290Z,23.32
2019-05-23T18:27:23.900Z,23.37
2019-05-23T18:29:25.475Z,23.49
2019-05-23T18:31:29.577Z,23.47
2019-05-23T18:33:31.268Z,23.38
2019-05-23T18:35:33.060Z,23.29
2019-05-23T18:37:34.682Z,22.88
2019-05-23T18:39:36.338Z,23.13
2019-05-23T18:41:37.918Z,23.19
2019-05-23T18:43:39.541Z,23.03
2019-05-23T18:45:41.127Z,23.01
2019-05-23T18:47:42.752Z,23.08
2019-05-23T18:49:44.337Z,23.23
2019-05-23T18:51:45.943Z,23.34
2019-05-23T18:53:47.573Z,23.35
2019-05-23T18:55:49.143Z,23.44
2019-05-23T18:57:50.740Z,23.52
2019-05-23T18:59:52.332Z,23.57
2019-05-23T19:01:53.939Z,23.75
2019-05-23T19:03:55.573Z,23.67
2019-05-23T19:05:57.165Z,23.59
2019-05-23T19:07:58.782Z,23.58
2019-05-23T19:10:00.461Z,23.57
2019-05-23T19:12:02.049Z,23.57
2019-05-23T19:14:03.643Z,23.56
2019-05-23T19:16:05.239Z,23.55
2019-05-23T19:18:06.913Z,23.57
2019-05-23T19:20:08.522Z,23.56
2019-05-23T19:22:10.184Z,23.56
2019-05-23T19:24:11.926Z,23.53
2019-05-23T19:26:13.538Z,23.52
2019-05-23T19:28:15.127Z,23.52
2019-05-23T19:30:16.713Z,23.64
2019-05-23T19:32:18.997Z,23.23
2019-05-23T19:34:21.072Z,22.99
2019-05-23T19:36:22.713Z,22.89
2019-05-23T19:38:24.324Z,22.87
2019-05-23T19:40:25.935Z,22.90
2019-05-23T19:42:30.155Z,22.84
2019-05-23T19:44:31.747Z,23.58
2019-05-23T19:46:33.987Z,23.93
2019-05-23T19:48:35.590Z,24.09
2019-05-23T19:50:37.196Z,24.26
2019-05-23T19:52:38.805Z,24.06
2019-05-23T19:54:40.394Z,23.96
2019-05-23T19:56:41.966Z,23.91
2019-05-23T19:58:43.584Z,24.15
2019-05-23T20:00:45.196Z,24.16
2019-05-23T20:02:50.524Z,24.18
2019-05-23T20:04:56.955Z,24.06
2019-05-23T20:06:58.722Z,24.06
2019-05-23T20:09:00.333Z,23.95
2019-05-23T20:11:01.952Z,24.10
2019-05-23T20:13:03.591Z,24.15
2019-05-23T20:15:05.244Z,24.17
2019-05-23T20:17:06.830Z,24.08
2019-05-23T20:19:08.474Z,24.08
2019-05-23T20:21:10.080Z,24.03
2019-05-23T20:23:15.487Z,24.00
2019-05-23T20:25:13.427Z,24.00
2019-05-23T20:27:15.016Z,24.00
2019-05-23T20:29:16.676Z,23.98
2019-05-23T20:31:18.268Z,23.90
2019-05-23T20:33:19.854Z,23.85
2019-05-23T20:35:21.461Z,23.89
2019-05-23T20:37:23.060Z,23.49
2019-05-23T20:39:24.663Z,22.83
2019-05-23T20:41:26.235Z,23.29
2019-05-23T20:43:27.866Z,23.52
2019-05-23T20:45:29.474Z,23.58
2019-05-23T20:47:31.054Z,23.70
2019-05-23T20:49:32.662Z,23.74
2019-05-23T20:51:34.243Z,23.71
2019-05-23T20:53:35.838Z,23.67
2019-05-23T20:55:37.418Z,23.65
2019-05-23T20:57:39.006Z,23.71
2019-05-23T20:59:40.622Z,23.72
2019-05-23T21:01:42.230Z,23.04
2019-05-23T21:03:43.818Z,22.90
2019-05-23T21:05:45.425Z,22.89
2019-05-23T21:07:47.044Z,22.85
2019-05-23T21:09:48.687Z,22.75
2019-05-23T21:11:50.449Z,22.69
2019-05-23T21:13:52.170Z,22.65
2019-05-23T21:15:53.813Z,22.61
2019-05-23T21:17:55.422Z,22.56
2019-05-23T21:19:57.176Z,22.52
2019-05-23T21:21:58.775Z,22.43
2019-05-23T21:24:00.360Z,22.43
2019-05-23T21:26:02.001Z,22.37
2019-05-23T21:28:03.577Z,22.34
2019-05-23T21:30:05.164Z,22.31
2019-05-23T21:32:06.769Z,22.17
2019-05-23T21:34:08.388Z,22.24
2019-05-23T21:36:10.006Z,22.21
2019-05-23T21:38:11.593Z,22.16
2019-05-23T21:40:13.177Z,22.14
2019-05-23T21:42:14.761Z,21.83
2019-05-23T21:44:16.652Z,22.06
2019-05-23T21:46:18.230Z,22.05
2019-05-23T21:48:19.829Z,22.02
2019-05-23T21:50:21.438Z,22.01
2019-05-23T21:52:23.075Z,21.97
2019-05-23T21:54:24.688Z,21.95
2019-05-23T21:56:26.276Z,21.93
2019-05-23T21:58:27.896Z,21.90
2019-05-23T22:00:45.203Z,21.87
2019-05-23T22:02:46.812Z,21.85
2019-05-23T22:04:49.084Z,21.82
2019-05-23T22:06:55.320Z,21.80
2019-05-23T22:08:53.372Z,21.78
2019-05-23T22:10:54.956Z,21.74
2019-05-23T22:13:04.240Z,21.74
2019-05-23T22:14:58.165Z,21.73
2019-05-23T22:16:59.748Z,21.72
2019-05-23T22:19:01.411Z,21.69
2019-05-23T22:21:03.048Z,21.66
2019-05-23T22:23:04.632Z,21.68
2019-05-23T22:25:06.224Z,21.67
2019-05-23T22:27:07.860Z,21.66
2019-05-23T22:29:09.554Z,21.61
2019-05-23T22:31:11.156Z,21.63
2019-05-23T22:33:12.748Z,21.61
2019-05-23T22:35:14.389Z,21.60
2019-05-23T22:37:16.007Z,21.59
2019-05-23T22:39:17.629Z,21.57
2019-05-23T22:41:19.256Z,21.56
2019-05-23T22:43:21.533Z,21.51
2019-05-23T22:45:22.516Z,21.53
2019-05-23T22:47:24.104Z,21.50
2019-05-23T22:49:25.712Z,21.49
2019-05-23T22:51:27.304Z,21.48
2019-05-23T22:53:28.908Z,21.46
2019-05-23T22:55:30.540Z,21.45
2019-05-23T22:57:32.150Z,21.45
2019-05-23T22:59:33.759Z,21.44
2019-05-23T23:01:35.386Z,21.46
2019-05-23T23:03:36.996Z,21.48
2019-05-23T23:05:38.618Z,21.47
2019-05-23T23:07:40.212Z,21.45
2019-05-23T23:09:41.799Z,21.44
2019-05-23T23:11:43.410Z,21.43
2019-05-23T23:13:45.003Z,21.43
2019-05-23T23:15:46.641Z,21.43
2019-05-23T23:17:48.235Z,21.43
2019-05-23T23:19:49.820Z,21.43
2019-05-23T23:21:51.427Z,21.44
2019-05-23T23:23:53.006Z,21.44
2019-05-23T23:25:54.648Z,21.46
2019-05-23T23:27:56.284Z,21.49
2019-05-23T23:29:57.880Z,21.55
2019-05-23T23:32:03.654Z,21.62
2019-05-23T23:34:01.196Z,21.73
2019-05-23T23:36:02.823Z,21.80
2019-05-23T23:38:04.424Z,21.88
2019-05-23T23:40:06.077Z,21.97
2019-05-23T23:42:07.750Z,22.02
2019-05-23T23:44:09.475Z,22.05
2019-05-23T23:46:16.790Z,22.11
2019-05-23T23:48:24.092Z,22.16
2019-05-23T23:50:31.453Z,22.14
2019-05-23T23:52:38.722Z,22.14
2019-05-23T23:54:46.122Z,22.14
2019-05-23T23:56:53.518Z,22.13
2019-05-23T23:58:54.699Z,22.16
